Time,TemperatureF,DewpointF,PressureIn,WindDirection,WindDirectionDegrees,WindSpeedMPH,WindSpeedGustMPH,Humidity,HourlyPrecipIn,Conditions,Clouds,dailyrainin,SoftwareType,DateUTC
2013-06-13 00:02:00,85.0,70.0,29.54,North,9,6.0,10.0,60,0.00,,,0.00,,2013-06-13 05:02:00,
2013-06-13 00:12:00,85.0,70.0,29.54,North,9,6.0,10.0,60,0.00,,,0.00,,2013-06-13 05:12:00,
2013-06-13 00:24:00,85.0,70.0,29.55,West,265,3.0,15.0,60,0.00,,,0.00,,2013-06-13 05:24:00,
2013-06-13 00:33:00,85.0,70.0,29.55,West,265,3.0,15.0,60,0.00,,,0.00,,2013-06-13 05:33:00,
2013-06-13 00:43:00,85.0,70.0,29.55,West,265,3.0,15.0,60,0.00,,,0.00,,2013-06-13 05:43:00,
2013-06-13 00:53:00,84.0,70.0,29.55,WSW,256,3.0,18.0,62,0.00,,,0.00,,2013-06-13 05:53:00,
2013-06-13 01:02:00,84.0,70.0,29.55,WSW,256,3.0,18.0,62,0.00,,,0.00,,2013-06-13 06:02:00,
2013-06-13 01:11:00,84.0,70.0,29.55,WSW,256,3.0,18.0,62,0.00,,,0.00,,2013-06-13 06:11:00,
2013-06-13 01:22:00,83.0,70.0,29.53,SE,146,2.0,9.0,64,0.00,,,0.00,,2013-06-13 06:22:00,
2013-06-13 01:33:00,83.0,70.0,29.54,West,270,4.0,6.0,65,0.00,,,0.00,,2013-06-13 06:33:00,
2013-06-13 01:44:00,83.0,70.0,29.54,West,270,4.0,6.0,65,0.00,,,0.00,,2013-06-13 06:44:00,
2013-06-13 01:52:00,79.0,68.0,29.58,NNW,333,3.0,29.0,69,0.00,,,0.00,,2013-06-13 06:52:00,
2013-06-13 02:01:00,77.0,68.0,29.58,NNE,12,4.0,9.0,73,0.00,,,0.00,,2013-06-13 07:01:00,
2013-06-13 02:11:00,77.0,68.0,29.58,NNE,12,4.0,9.0,73,0.00,,,0.00,,2013-06-13 07:11:00,
2013-06-13 02:22:00,77.0,68.0,29.58,NNE,12,4.0,9.0,73,0.00,,,0.00,,2013-06-13 07:22:00,
2013-06-13 02:33:00,73.0,66.0,29.57,NE,49,3.0,8.0,79,0.00,,,0.00,,2013-06-13 07:33:00,
2013-06-13 02:42:00,73.0,66.0,29.57,NE,49,3.0,8.0,79,0.00,,,0.00,,2013-06-13 07:42:00,
2013-06-13 02:52:00,73.0,66.0,29.57,NE,49,3.0,8.0,79,0.00,,,0.00,,2013-06-13 07:52:00,
2013-06-13 03:01:00,72.0,65.0,29.57,NNE,32,0.0,3.0,80,0.00,,,0.00,,2013-06-13 08:01:00,
2013-06-13 03:11:00,72.0,65.0,29.57,NNE,32,0.0,3.0,80,0.00,,,0.00,,2013-06-13 08:11:00,
2013-06-13 03:22:00,71.0,65.0,29.56,NNE,32,0.0,0.0,81,0.00,,,0.00,,2013-06-13 08:22:00,
2013-06-13 03:32:00,71.0,65.0,29.56,NNE,32,0.0,0.0,81,0.00,,,0.00,,2013-06-13 08:32:00,
2013-06-13 03:43:00,71.0,65.0,29.56,NNE,32,0.0,0.0,81,0.00,,,0.00,,2013-06-13 08:43:00,
2013-06-13 03:52:00,70.0,65.0,29.56,NNE,32,0.0,1.0,83,0.00,,,0.00,,2013-06-13 08:52:00,
2013-06-13 04:02:00,70.0,65.0,29.56,NNE,32,0.0,1.0,85,0.00,,,0.00,,2013-06-13 09:02:00,
2013-06-13 04:11:00,70.0,65.0,29.56,NNE,32,0.0,1.0,85,0.00,,,0.00,,2013-06-13 09:11:00,
2013-06-13 04:22:00,70.0,65.0,29.56,ENE,72,0.0,3.0,85,0.00,,,0.00,,2013-06-13 09:22:00,
2013-06-13 04:32:00,70.0,66.0,29.57,ENE,59,0.0,5.0,86,0.00,,,0.00,,2013-06-13 09:32:00,
2013-06-13 04:42:00,70.0,66.0,29.57,ENE,59,0.0,5.0,86,0.00,,,0.00,,2013-06-13 09:42:00,
2013-06-13 04:52:00,70.0,66.0,29.58,WSW,258,0.0,6.0,86,0.00,,,0.00,,2013-06-13 09:52:00,
2013-06-13 05:01:00,70.0,66.0,29.58,WSW,258,1.0,3.0,86,0.00,,,0.00,,2013-06-13 10:01:00,
2013-06-13 05:11:00,70.0,66.0,29.58,WSW,258,1.0,3.0,86,0.00,,,0.00,,2013-06-13 10:11:00,
2013-06-13 05:22:00,70.0,66.0,29.61,NW,312,6.0,14.0,87,0.00,,,0.00,,2013-06-13 10:22:00,
2013-06-13 05:33:00,70.0,66.0,29.62,NW,323,9.0,14.0,86,0.00,,,0.00,,2013-06-13 10:33:00,
2013-06-13 05:43:00,70.0,66.0,29.62,NW,323,9.0,14.0,86,0.00,,,0.00,,2013-06-13 10:43:00,
2013-06-13 05:53:00,69.0,65.0,29.63,North,356,7.0,15.0,86,0.00,,,0.00,,2013-06-13 10:53:00,
2013-06-13 06:02:00,69.0,65.0,29.63,North,355,8.0,15.0,86,0.00,,,0.00,,2013-06-13 11:02:00,
2013-06-13 06:11:00,69.0,65.0,29.63,North,355,8.0,15.0,86,0.00,,,0.00,,2013-06-13 11:11:00,
2013-06-13 06:23:00,68.0,64.0,29.65,NNW,340,10.0,16.0,87,0.00,,,0.00,,2013-06-13 11:23:00,
2013-06-13 06:32:00,68.0,64.0,29.66,NNW,335,9.0,21.0,87,0.00,,,0.00,,2013-06-13 11:32:00,
2013-06-13 06:42:00,68.0,64.0,29.66,NNW,335,9.0,21.0,87,0.00,,,0.00,,2013-06-13 11:42:00,
2013-06-13 06:52:00,68.0,64.0,29.66,NNW,335,9.0,21.0,87,0.00,,,0.00,,2013-06-13 11:52:00,
2013-06-13 07:01:00,68.0,64.0,29.66,NNW,335,9.0,21.0,87,0.00,,,0.00,,2013-06-13 12:01:00,
2013-06-13 07:22:00,66.0,62.0,29.70,NNW,329,12.0,18.0,88,0.00,,,0.00,,2013-06-13 12:22:00,
2013-06-13 07:35:00,66.0,62.0,29.70,NNW,329,12.0,18.0,88,0.00,,,0.00,,2013-06-13 12:35:00,
2013-06-13 07:43:00,66.0,62.0,29.70,NNW,329,12.0,18.0,88,0.00,,,0.00,,2013-06-13 12:43:00,
2013-06-13 07:52:00,66.0,62.0,29.71,North,354,16.0,20.0,87,0.00,,,0.00,,2013-06-13 12:52:00,
2013-06-13 08:01:00,66.0,62.0,29.72,NNW,343,9.0,23.0,87,0.00,,,0.00,,2013-06-13 13:01:00,
2013-06-13 08:11:00,66.0,62.0,29.72,NNW,343,9.0,23.0,87,0.00,,,0.00,,2013-06-13 13:11:00,
2013-06-13 08:21:00,65.0,60.0,29.73,NW,311,9.0,23.0,85,0.00,,,0.00,,2013-06-13 13:21:00,
2013-06-13 08:32:00,66.0,61.0,29.74,NNW,330,9.0,14.0,85,0.00,,,0.00,,2013-06-13 13:32:00,
2013-06-13 08:43:00,66.0,61.0,29.74,NNW,330,9.0,14.0,85,0.00,,,0.00,,2013-06-13 13:43:00,
2013-06-13 08:53:00,66.0,61.0,29.74,NNW,330,9.0,14.0,85,0.00,,,0.00,,2013-06-13 13:53:00,
2013-06-13 09:02:00,66.0,61.0,29.74,NNW,330,9.0,14.0,85,0.00,,,0.00,,2013-06-13 14:02:00,
2013-06-13 09:22:00,66.0,60.0,29.76,NNW,347,10.0,25.0,82,0.00,,,0.00,,2013-06-13 14:22:00,
2013-06-13 09:33:00,66.0,60.0,29.76,NW,306,10.0,18.0,82,0.00,,,0.00,,2013-06-13 14:33:00,
2013-06-13 09:43:00,66.0,60.0,29.76,NW,306,10.0,18.0,82,0.00,,,0.00,,2013-06-13 14:43:00,
2013-06-13 09:53:00,67.0,61.0,29.78,NNW,329,8.0,18.0,82,0.00,,,0.00,,2013-06-13 14:53:00,
2013-06-13 10:01:00,67.0,61.0,29.79,NNW,342,12.0,16.0,82,0.00,,,0.00,,2013-06-13 15:01:00,
2013-06-13 10:12:00,67.0,61.0,29.79,NNW,342,12.0,16.0,82,0.00,,,0.00,,2013-06-13 15:12:00,
2013-06-13 10:22:00,69.0,62.0,29.80,NNW,348,9.0,24.0,78,0.00,,,0.00,,2013-06-13 15:22:00,
2013-06-13 10:33:00,69.0,61.0,29.79,North,355,14.0,21.0,76,0.00,,,0.00,,2013-06-13 15:33:00,
2013-06-13 10:43:00,69.0,61.0,29.79,North,355,14.0,21.0,76,0.00,,,0.00,,2013-06-13 15:43:00,
2013-06-13 10:53:00,70.0,61.0,29.80,NNE,21,12.0,24.0,72,0.00,,,0.00,,2013-06-13 15:53:00,
2013-06-13 11:02:00,71.0,59.0,29.80,NE,35,19.0,24.0,67,0.00,,,0.00,,2013-06-13 16:02:00,
2013-06-13 11:12:00,71.0,59.0,29.80,NE,35,19.0,24.0,67,0.00,,,0.00,,2013-06-13 16:12:00,
2013-06-13 11:22:00,73.0,59.0,29.82,NNW,344,12.0,20.0,62,0.00,,,0.00,,2013-06-13 16:22:00,
2013-06-13 11:33:00,73.0,59.0,29.82,NNW,344,12.0,20.0,62,0.00,,,0.00,,2013-06-13 16:33:00,
2013-06-13 11:43:00,73.0,59.0,29.82,NNW,344,12.0,20.0,62,0.00,,,0.00,,2013-06-13 16:43:00,
2013-06-13 11:53:00,73.0,57.0,29.83,North,356,19.0,25.0,58,0.00,,,0.00,,2013-06-13 16:53:00,
2013-06-13 12:02:00,74.0,58.0,29.82,North,0,14.0,23.0,58,0.00,,,0.00,,2013-06-13 17:02:00,
2013-06-13 12:11:00,74.0,58.0,29.82,North,0,14.0,23.0,58,0.00,,,0.00,,2013-06-13 17:11:00,
2013-06-13 12:24:00,75.0,58.0,29.83,North,1,15.0,21.0,55,0.00,,,0.00,,2013-06-13 17:24:00,
2013-06-13 12:33:00,75.0,57.0,29.84,North,350,14.0,23.0,53,0.00,,,0.00,,2013-06-13 17:33:00,
2013-06-13 12:43:00,75.0,57.0,29.84,North,350,14.0,23.0,53,0.00,,,0.00,,2013-06-13 17:43:00,
2013-06-13 12:53:00,76.0,58.0,29.84,NNE,15,15.0,21.0,53,0.00,,,0.00,,2013-06-13 17:53:00,
2013-06-13 13:02:00,76.0,55.0,29.83,NNE,21,17.0,23.0,49,0.00,,,0.00,,2013-06-13 18:02:00,
2013-06-13 13:11:00,76.0,55.0,29.83,NNE,21,17.0,23.0,49,0.00,,,0.00,,2013-06-13 18:11:00,
2013-06-13 13:22:00,77.0,56.0,29.85,NNE,26,15.0,23.0,48,0.00,,,0.00,,2013-06-13 18:22:00,
2013-06-13 13:33:00,77.0,57.0,29.85,NNE,33,9.0,20.0,50,0.00,,,0.00,,2013-06-13 18:33:00,
2013-06-13 13:43:00,77.0,57.0,29.85,NNE,33,9.0,20.0,50,0.00,,,0.00,,2013-06-13 18:43:00,
2013-06-13 13:52:00,77.0,56.0,29.86,North,355,9.0,21.0,48,0.00,,,0.00,,2013-06-13 18:52:00,
2013-06-13 14:01:00,78.0,56.0,29.85,North,359,14.0,26.0,46,0.00,,,0.00,,2013-06-13 19:01:00,
2013-06-13 14:11:00,78.0,56.0,29.85,North,359,14.0,26.0,46,0.00,,,0.00,,2013-06-13 19:11:00,
2013-06-13 14:22:00,77.0,55.0,29.86,North,1,17.0,20.0,47,0.00,,,0.00,,2013-06-13 19:22:00,
2013-06-13 14:33:00,77.0,53.0,29.86,NNE,15,14.0,21.0,44,0.00,,,0.00,,2013-06-13 19:33:00,
2013-06-13 14:43:00,77.0,53.0,29.86,NNE,15,14.0,21.0,44,0.00,,,0.00,,2013-06-13 19:43:00,
2013-06-13 14:53:00,78.0,54.0,29.87,NNW,346,16.0,26.0,44,0.00,,,0.00,,2013-06-13 19:53:00,
2013-06-13 15:01:00,77.0,49.0,29.88,North,357,25.0,30.0,37,0.00,,,0.00,,2013-06-13 20:01:00,
2013-06-13 15:11:00,77.0,49.0,29.88,North,357,25.0,30.0,37,0.00,,,0.00,,2013-06-13 20:11:00,
2013-06-13 15:22:00,77.0,52.0,29.88,WNW,300,14.0,31.0,42,0.00,,,0.00,,2013-06-13 20:22:00,
2013-06-13 15:33:00,77.0,52.0,29.88,NNE,17,17.0,21.0,42,0.00,,,0.00,,2013-06-13 20:33:00,
2013-06-13 15:44:00,77.0,52.0,29.88,NNE,17,17.0,21.0,42,0.00,,,0.00,,2013-06-13 20:44:00,
2013-06-13 15:53:00,77.0,53.0,29.88,NNW,337,13.0,24.0,44,0.00,,,0.00,,2013-06-13 20:53:00,
2013-06-13 16:02:00,77.0,52.0,29.88,North,0,13.0,31.0,42,0.00,,,0.00,,2013-06-13 21:02:00,
2013-06-13 16:11:00,77.0,52.0,29.88,North,0,13.0,31.0,42,0.00,,,0.00,,2013-06-13 21:11:00,
2013-06-13 16:22:00,77.0,54.0,29.88,North,354,14.0,26.0,45,0.00,,,0.00,,2013-06-13 21:22:00,
2013-06-13 16:34:00,77.0,54.0,29.88,NE,44,16.0,21.0,45,0.00,,,0.00,,2013-06-13 21:34:00,
2013-06-13 16:43:00,77.0,54.0,29.88,NE,44,16.0,21.0,45,0.00,,,0.00,,2013-06-13 21:43:00,
2013-06-13 16:52:00,77.0,54.0,29.88,North,10,13.0,26.0,45,0.00,,,0.00,,2013-06-13 21:52:00,
2013-06-13 17:02:00,77.0,53.0,29.89,North,5,15.0,21.0,43,0.00,,,0.00,,2013-06-13 22:02:00,
2013-06-13 17:11:00,77.0,53.0,29.89,North,5,15.0,21.0,43,0.00,,,0.00,,2013-06-13 22:11:00,
2013-06-13 17:22:00,77.0,53.0,29.88,NNW,339,9.0,25.0,43,0.00,,,0.00,,2013-06-13 22:22:00,
2013-06-13 17:33:00,77.0,54.0,29.88,NNE,20,11.0,15.0,45,0.00,,,0.00,,2013-06-13 22:33:00,
2013-06-13 17:43:00,77.0,54.0,29.88,NNE,20,11.0,15.0,45,0.00,,,0.00,,2013-06-13 22:43:00,
2013-06-13 17:52:00,77.0,54.0,29.88,NNE,23,8.0,16.0,45,0.00,,,0.00,,2013-06-13 22:52:00,
2013-06-13 18:02:00,76.0,54.0,29.88,NNE,23,11.0,21.0,47,0.00,,,0.00,,2013-06-13 23:02:00,
2013-06-13 18:11:00,76.0,54.0,29.88,NNE,23,11.0,21.0,47,0.00,,,0.00,,2013-06-13 23:11:00,
2013-06-13 18:22:00,76.0,54.0,29.88,North,8,5.0,16.0,47,0.00,,,0.00,,2013-06-13 23:22:00,
2013-06-13 18:32:00,77.0,55.0,29.88,NNE,19,7.0,9.0,46,0.00,,,0.00,,2013-06-13 23:32:00,
2013-06-13 18:43:00,77.0,55.0,29.88,NNE,19,7.0,9.0,46,0.00,,,0.00,,2013-06-13 23:43:00,
2013-06-13 18:52:00,76.0,55.0,29.88,NNE,31,5.0,9.0,48,0.00,,,0.00,,2013-06-13 23:52:00,
2013-06-13 19:01:00,76.0,55.0,29.88,North,6,7.0,10.0,48,0.00,,,0.00,,2013-06-14 00:01:00,
2013-06-13 19:12:00,76.0,55.0,29.88,North,6,7.0,10.0,48,0.00,,,0.00,,2013-06-14 00:12:00,
2013-06-13 19:22:00,75.0,54.0,29.89,NNE,24,8.0,15.0,48,0.00,,,0.00,,2013-06-14 00:22:00,
2013-06-13 19:34:00,75.0,55.0,29.89,NNE,12,11.0,14.0,49,0.00,,,0.00,,2013-06-14 00:34:00,
2013-06-13 19:43:00,75.0,55.0,29.89,NNE,12,11.0,14.0,49,0.00,,,0.00,,2013-06-14 00:43:00,
2013-06-13 19:53:00,73.0,54.0,29.91,NNE,12,5.0,15.0,52,0.00,,,0.00,,2013-06-14 00:53:00,
2013-06-13 20:01:00,72.0,55.0,29.91,NNE,18,9.0,16.0,55,0.00,,,0.00,,2013-06-14 01:01:00,
2013-06-13 20:11:00,72.0,55.0,29.91,NNE,18,9.0,16.0,55,0.00,,,0.00,,2013-06-14 01:11:00,
2013-06-13 20:22:00,71.0,55.0,29.91,NW,323,3.0,9.0,58,0.00,,,0.00,,2013-06-14 01:22:00,
2013-06-13 20:32:00,70.0,55.0,29.92,NNE,21,2.0,9.0,60,0.00,,,0.00,,2013-06-14 01:32:00,
2013-06-13 20:43:00,70.0,55.0,29.92,NNE,21,2.0,9.0,60,0.00,,,0.00,,2013-06-14 01:43:00,
2013-06-13 20:52:00,69.0,55.0,29.93,North,351,1.0,9.0,62,0.00,,,0.00,,2013-06-14 01:52:00,
2013-06-13 21:02:00,68.0,55.0,29.93,North,10,6.0,6.0,63,0.00,,,0.00,,2013-06-14 02:02:00,
2013-06-13 21:11:00,68.0,55.0,29.93,North,10,6.0,6.0,63,0.00,,,0.00,,2013-06-14 02:11:00,
2013-06-13 21:22:00,67.0,55.0,29.93,North,4,2.0,8.0,65,0.00,,,0.00,,2013-06-14 02:22:00,
2013-06-13 21:32:00,67.0,55.0,29.93,NNW,340,2.0,6.0,66,0.00,,,0.00,,2013-06-14 02:32:00,
2013-06-13 21:43:00,67.0,55.0,29.93,NNW,340,2.0,6.0,66,0.00,,,0.00,,2013-06-14 02:43:00,
2013-06-13 21:53:00,66.0,56.0,29.94,NNW,345,4.0,6.0,69,0.00,,,0.00,,2013-06-14 02:53:00,
2013-06-13 22:02:00,66.0,56.0,29.95,North,10,6.0,9.0,69,0.00,,,0.00,,2013-06-14 03:02:00,
2013-06-13 22:12:00,66.0,56.0,29.95,North,10,6.0,9.0,69,0.00,,,0.00,,2013-06-14 03:12:00,
2013-06-13 22:22:00,65.0,55.0,29.95,NE,35,7.0,9.0,70,0.00,,,0.00,,2013-06-14 03:22:00,
2013-06-13 22:34:00,65.0,55.0,29.95,North,10,8.0,15.0,70,0.00,,,0.00,,2013-06-14 03:34:00,
2013-06-13 22:43:00,65.0,55.0,29.95,North,10,8.0,15.0,70,0.00,,,0.00,,2013-06-14 03:43:00,
2013-06-13 22:53:00,65.0,56.0,29.94,NNW,332,7.0,15.0,72,0.00,,,0.00,,2013-06-14 03:53:00,
2013-06-13 23:01:00,64.0,55.0,29.94,North,10,5.0,9.0,73,0.00,,,0.00,,2013-06-14 04:01:00,
2013-06-13 23:12:00,64.0,55.0,29.94,North,10,5.0,9.0,73,0.00,,,0.00,,2013-06-14 04:12:00,
2013-06-13 23:22:00,64.0,55.0,29.93,NNE,17,6.0,10.0,73,0.00,,,0.00,,2013-06-14 04:22:00,
2013-06-13 23:33:00,63.0,55.0,29.93,NNE,33,6.0,10.0,74,0.00,,,0.00,,2013-06-14 04:33:00,
2013-06-13 23:43:00,63.0,55.0,29.93,NNE,33,6.0,10.0,74,0.00,,,0.00,,2013-06-14 04:43:00,
2013-06-13 23:53:00,63.0,54.0,29.94,North,1,7.0,9.0,72,0.00,,,0.00,,2013-06-14 04:53:00,